Time;durP1;ratioP1;P1;durP2;ratioP2;P2;SDS_P1;SDS_P2;PMS_P1;PMS_P2;Temp;Humidity;BMP_temperature;BMP_pressure;BME280_temperature;BME280_humidity;BME280_pressure;Samples;Min_cycle;Max_cycle;Signal;HPM_P1;HPM_P2
2023/07/13 00:00:33;;;;;;;2.53;2.33;;;20.80;59.50;;;;;;4972214;28;20069;-86
2023/07/13 00:02:59;;;;;;;2.88;2.58;;;20.80;59.60;;;;;;4972209;28;20113;-85
2023/07/13 00:05:26;;;;;;;2.70;2.50;;;20.80;59.70;;;;;;4972471;28;20035;-86
2023/07/13 00:07:51;;;;;;;3.15;2.20;;;20.80;59.90;;;;;;4972651;28;20027;-86
2023/07/13 00:10:18;;;;;;;2.75;2.50;;;20.80;59.90;;;;;;4972207;28;20494;-86
2023/07/13 00:12:44;;;;;;;2.70;2.50;;;20.80;60.00;;;;;;4972195;28;20047;-86
2023/07/13 00:15:23;;;;;;;3.35;2.40;;;20.80;60.00;;;;;;4972435;28;20546;-86
2023/07/13 00:17:53;;;;;;;3.00;2.70;;;20.80;60.10;;;;;;4972534;28;20019;-86
2023/07/13 00:20:22;;;;;;;3.13;2.77;;;20.80;60.10;;;;;;4972504;28;20023;-86
2023/07/13 00:22:53;;;;;;;3.40;3.08;;;20.80;60.10;;;;;;4971970;28;20034;-86
2023/07/13 00:25:19;;;;;;;3.13;2.83;;;20.80;60.10;;;;;;4973556;28;20451;-86
2023/07/13 00:27:51;;;;;;;3.95;3.00;;;20.70;60.10;;;;;;4972067;28;20125;-86
2023/07/13 00:30:17;;;;;;;3.63;3.17;;;20.70;60.20;;;;;;4973106;28;20502;-86
2023/07/13 00:32:43;;;;;;;3.33;2.70;;;20.70;60.20;;;;;;4971921;28;20049;-85
2023/07/13 00:35:09;;;;;;;4.32;3.30;;;20.70;60.30;;;;;;4971908;28;20023;-85
2023/07/13 00:37:36;;;;;;;3.75;2.80;;;20.60;60.40;;;;;;4973321;28;20054;-86
2023/07/13 00:40:06;;;;;;;2.90;2.70;;;20.70;60.50;;;;;;4971887;28;20034;-85
2023/07/13 00:42:32;;;;;;;3.20;2.90;;;20.60;60.60;;;;;;4971661;28;20023;-86
2023/07/13 00:45:25;;;;;;;2.70;2.50;;;20.60;60.80;;;;;;4971635;28;20023;-86
2023/07/13 00:47:51;;;;;;;2.65;2.42;;;20.60;60.80;;;;;;4971543;28;20027;-85
2023/07/13 00:50:19;;;;;;;4.13;2.50;;;20.50;60.90;;;;;;4971672;28;20026;-86
2023/07/13 00:52:50;;;;;;;3.03;2.30;;;20.50;61.00;;;;;;4971430;28;20057;-85
2023/07/13 00:55:17;;;;;;;4.07;2.55;;;20.50;61.10;;;;;;4971761;28;20076;-86
2023/07/13 00:57:44;;;;;;;2.50;2.30;;;20.50;61.20;;;;;;4971480;28;20093;-86
2023/07/13 01:00:11;;;;;;;2.95;2.45;;;20.50;61.30;;;;;;4971589;28;20125;-86
2023/07/13 01:02:42;;;;;;;3.38;2.28;;;20.50;61.40;;;;;;4971719;28;20051;-86
2023/07/13 01:05:16;;;;;;;3.30;2.60;;;20.40;61.50;;;;;;4971528;28;20043;-86
2023/07/13 01:07:43;;;;;;;3.67;2.85;;;20.40;61.60;;;;;;4971551;28;20034;-86
2023/07/13 01:10:10;;;;;;;2.40;2.20;;;20.40;61.70;;;;;;4972599;28;20384;-86
2023/07/13 01:12:36;;;;;;;2.50;2.30;;;20.40;61.70;;;;;;4973000;28;20060;-86
2023/07/13 01:15:04;;;;;;;2.42;2.22;;;20.40;61.80;;;;;;4977849;28;20409;-85
2023/07/13 01:17:32;;;;;;;3.20;2.70;;;20.40;61.80;;;;;;4979135;28;20019;-85
2023/07/13 01:19:59;;;;;;;3.95;2.70;;;20.30;61.80;;;;;;4979056;28;20472;-86
2023/07/13 01:22:26;;;;;;;4.22;2.90;;;20.30;61.90;;;;;;4977798;28;20390;-86
2023/07/13 01:24:53;;;;;;;3.90;2.75;;;20.30;62.00;;;;;;4977671;28;20023;-85
2023/07/13 01:27:24;;;;;;;3.15;2.40;;;20.30;62.00;;;;;;4977634;28;20023;-87
2023/07/13 01:29:52;;;;;;;3.78;2.60;;;20.30;62.10;;;;;;4978932;28;20050;-86
2023/07/13 01:32:23;;;;;;;2.25;2.05;;;20.30;62.20;;;;;;4961528;28;20039;-86
2023/07/13 01:34:50;;;;;;;2.60;2.40;;;20.30;62.30;;;;;;4977985;28;20069;-86
2023/07/13 01:37:16;;;;;;;2.95;2.65;;;20.30;62.40;;;;;;4977526;28;20030;-86
2023/07/13 01:39:42;;;;;;;2.22;2.03;;;20.30;62.40;;;;;;4977624;28;20026;-86
2023/07/13 01:42:08;;;;;;;2.28;2.10;;;20.20;62.20;;;;;;4977518;28;20034;-86
2023/07/13 01:44:34;;;;;;;2.88;2.50;;;20.20;62.30;;;;;;4977716;28;20095;-86
2023/07/13 01:47:01;;;;;;;2.78;2.42;;;20.20;62.30;;;;;;4977496;28;20027;-86
2023/07/13 01:49:26;;;;;;;4.40;2.65;;;20.20;62.50;;;;;;4977415;28;20026;-85
2023/07/13 01:51:52;;;;;;;3.65;2.92;;;20.20;62.50;;;;;;4977515;28;20471;-85
2023/07/13 01:54:18;;;;;;;2.60;2.40;;;20.10;62.50;;;;;;4977640;28;20517;-86
2023/07/13 01:56:43;;;;;;;3.00;2.70;;;20.00;62.60;;;;;;4977455;28;20479;-86
2023/07/13 01:59:09;;;;;;;2.95;2.47;;;20.00;62.80;;;;;;4977553;28;20054;-85
2023/07/13 02:01:35;;;;;;;2.30;2.10;;;20.00;62.90;;;;;;4977353;28;20038;-85
2023/07/13 02:04:02;;;;;;;2.90;2.60;;;20.00;63.10;;;;;;4977376;28;20572;-86
2023/07/13 02:06:27;;;;;;;4.47;2.78;;;20.00;63.20;;;;;;4977555;28;20023;-86
2023/07/13 02:08:53;;;;;;;2.78;2.58;;;19.90;63.20;;;;;;4977181;28;20042;-86
2023/07/13 02:11:19;;;;;;;2.50;2.30;;;19.90;63.30;;;;;;4977159;28;20460;-86
2023/07/13 02:13:44;;;;;;;2.40;2.20;;;19.90;63.30;;;;;;4977397;28;20054;-86
2023/07/13 02:16:10;;;;;;;2.47;2.28;;;19.90;63.40;;;;;;4976740;28;20105;-86
2023/07/13 02:18:36;;;;;;;2.70;2.50;;;19.90;63.50;;;;;;4976125;28;20027;-85
2023/07/13 02:21:02;;;;;;;4.55;2.80;;;19.90;63.50;;;;;;4976694;28;20109;-86
2023/07/13 02:23:28;;;;;;;3.67;2.60;;;19.90;63.60;;;;;;4975173;28;20103;-85
2023/07/13 02:25:57;;;;;;;3.45;2.55;;;19.90;63.60;;;;;;4972879;28;20042;-85
2023/07/13 02:28:23;;;;;;;3.20;2.42;;;19.90;63.60;;;;;;4972271;28;20037;-86
2023/07/13 02:30:49;;;;;;;2.35;2.15;;;19.90;63.60;;;;;;4969040;28;20043;-86
2023/07/13 02:33:15;;;;;;;3.42;2.60;;;19.90;63.70;;;;;;4954840;28;20038;-86
2023/07/13 02:35:41;;;;;;;2.95;2.40;;;19.90;63.90;;;;;;4968899;28;20027;-86
2023/07/13 02:38:06;;;;;;;3.13;2.70;;;20.00;63.90;;;;;;4954101;28;20077;-85
2023/07/13 02:40:35;;;;;;;2.63;2.42;;;19.90;64.00;;;;;;4968805;28;20027;-85
2023/07/13 02:43:02;;;;;;;3.30;2.58;;;19.90;64.00;;;;;;4969009;28;20028;-86
2023/07/13 02:45:28;;;;;;;2.60;2.40;;;19.90;64.30;;;;;;4968770;28;20062;-86
2023/07/13 02:47:54;;;;;;;2.60;2.40;;;19.90;64.10;;;;;;4968872;28;20039;-86
2023/07/13 02:50:20;;;;;;;3.22;2.92;;;19.90;64.20;;;;;;4954175;29;20497;-85
2023/07/13 02:52:46;;;;;;;3.25;2.65;;;19.90;64.20;;;;;;4955796;28;20020;-86
2023/07/13 02:55:12;;;;;;;2.97;2.40;;;19.90;64.20;;;;;;4955645;28;20031;-86
2023/07/13 02:57:37;;;;;;;3.83;2.50;;;19.90;64.20;;;;;;4970548;28;20019;-86
2023/07/13 03:00:05;;;;;;;2.92;2.55;;;19.90;64.20;;;;;;4970284;28;20042;-86
2023/07/13 03:02:32;;;;;;;3.42;2.45;;;19.90;64.30;;;;;;4955508;28;20027;-85
2023/07/13 03:04:58;;;;;;;2.90;2.70;;;19.90;65.10;;;;;;4970290;28;20027;-85
2023/07/13 03:07:25;;;;;;;5.28;2.90;;;20.00;64.30;;;;;;4970092;28;20031;-86
2023/07/13 03:09:57;;;;;;;3.95;2.63;;;19.90;64.50;;;;;;4955369;28;20497;-86
2023/07/13 03:12:23;;;;;;;2.85;2.60;;;20.00;64.30;;;;;;4970046;28;20038;-86
2023/07/13 03:14:49;;;;;;;3.15;2.60;;;20.00;64.30;;;;;;4969972;28;20074;-86
2023/07/13 03:17:15;;;;;;;2.83;2.53;;;20.00;64.40;;;;;;4970075;28;20023;-86
2023/07/13 03:19:40;;;;;;;2.90;2.60;;;20.10;64.30;;;;;;4970174;28;20033;-85
2023/07/13 03:22:06;;;;;;;3.10;2.80;;;20.10;64.40;;;;;;4970007;28;20042;-86
2023/07/13 03:24:35;;;;;;;4.18;2.90;;;20.20;64.40;;;;;;4970141;28;20121;-86
2023/07/13 03:27:03;;;;;;;4.38;3.17;;;20.20;64.30;;;;;;4969694;28;20551;-85
2023/07/13 03:29:29;;;;;;;4.03;3.35;;;20.30;64.50;;;;;;4969648;28;20194;-86
2023/07/13 03:31:54;;;;;;;5.93;3.13;;;20.40;64.70;;;;;;4969766;28;20598;-86
2023/07/13 03:34:20;;;;;;;4.45;3.47;;;20.50;65.20;;;;;;4953725;29;20534;-86
2023/07/13 03:36:46;;;;;;;3.67;3.38;;;20.70;65.50;;;;;;4952433;28;20422;-85
2023/07/13 03:39:11;;;;;;;3.50;3.15;;;20.90;66.20;;;;;;4969634;28;20023;-85
2023/07/13 03:41:37;;;;;;;3.38;2.88;;;21.20;65.50;;;;;;4953124;28;20019;-86
2023/07/13 03:44:03;;;;;;;3.13;2.70;;;21.50;65.30;;;;;;4967762;28;20042;-85
2023/07/13 03:46:29;;;;;;;4.10;2.80;;;21.90;65.00;;;;;;4967572;28;20035;-85
2023/07/13 03:48:54;;;;;;;2.90;2.65;;;22.40;64.60;;;;;;4952528;28;20042;-86
2023/07/13 03:51:20;;;;;;;3.40;2.85;;;23.10;63.90;;;;;;4951857;29;20038;-85
2023/07/13 03:53:48;;;;;;;3.40;2.60;;;23.80;62.70;;;;;;4967253;28;20020;-85
2023/07/13 03:56:15;;;;;;;4.72;2.88;;;24.80;61.50;;;;;;4967259;28;20558;-85
2023/07/13 03:58:42;;;;;;;2.55;2.35;;;25.70;59.80;;;;;;4968230;28;20023;-85
2023/07/13 04:01:10;;;;;;;2.72;2.53;;;26.60;58.10;;;;;;4954365;28;20035;-85
2023/07/13 04:03:36;;;;;;;2.85;2.45;;;27.10;56.30;;;;;;4969073;28;20055;-85
2023/07/13 04:06:04;;;;;;;2.85;2.60;;;27.40;55.80;;;;;;4954433;28;20033;-85
2023/07/13 04:08:32;;;;;;;3.03;2.20;;;28.00;55.20;;;;;;4969597;28;20289;-85
2023/07/13 04:10:58;;;;;;;5.28;2.63;;;28.40;54.00;;;;;;4953043;28;20054;-86
2023/07/13 04:13:25;;;;;;;3.92;2.38;;;28.70;53.40;;;;;;4954245;29;20029;-85
2023/07/13 04:15:51;;;;;;;2.42;2.22;;;29.30;53.20;;;;;;4954064;28;20031;-85
2023/07/13 04:18:17;;;;;;;3.10;2.40;;;30.00;52.70;;;;;;4968980;28;20110;-86
2023/07/13 04:20:43;;;;;;;3.00;2.50;;;30.80;51.70;;;;;;4968727;28;20494;-86
2023/07/13 04:23:09;;;;;;;3.35;2.47;;;31.60;51.20;;;;;;4954008;28;20027;-86
2023/07/13 04:25:35;;;;;;;2.80;2.60;;;32.40;50.40;;;;;;4953811;28;20031;-86
2023/07/13 04:28:03;;;;;;;4.22;2.58;;;33.20;49.60;;;;;;4968647;28;20571;-86
2023/07/13 04:30:28;;;;;;;2.72;2.47;;;33.70;49.00;;;;;;4968291;28;20047;-86
2023/07/13 04:32:54;;;;;;;2.20;2.00;;;34.00;47.90;;;;;;4953841;28;20031;-85
2023/07/13 04:35:20;;;;;;;3.33;2.72;;;34.30;47.40;;;;;;4953894;28;20035;-86
2023/07/13 04:37:49;;;;;;;2.58;2.38;;;34.30;46.70;;;;;;4968662;28;20114;-85
2023/07/13 04:40:18;;;;;;;3.70;2.70;;;33.90;46.30;;;;;;4968705;28;20023;-86
2023/07/13 04:42:47;;;;;;;2.95;2.35;;;33.50;46.30;;;;;;4953608;28;20055;-86
2023/07/13 04:45:14;;;;;;;3.88;2.55;;;33.00;46.70;;;;;;4968937;28;20027;-85
2023/07/13 04:47:40;;;;;;;2.53;2.33;;;32.80;47.00;;;;;;4968084;28;20027;-85
2023/07/13 04:50:07;;;;;;;2.53;2.25;;;32.90;47.20;;;;;;4966928;28;20522;-85
2023/07/13 04:52:33;;;;;;;3.00;2.50;;;33.40;47.30;;;;;;4951911;28;20027;-85
2023/07/13 04:55:00;;;;;;;3.05;2.72;;;34.00;47.00;;;;;;4966815;28;20035;-85
2023/07/13 04:57:26;;;;;;;2.78;2.40;;;34.60;46.40;;;;;;4952880;28;20081;-85
2023/07/13 04:59:52;;;;;;;2.42;2.22;;;35.10;45.70;;;;;;4967033;28;20023;-85
2023/07/13 05:02:20;;;;;;;2.50;2.30;;;35.30;45.30;;;;;;4968082;28;20039;-85
2023/07/13 05:04:49;;;;;;;2.65;2.45;;;35.40;45.00;;;;;;4968420;28;20637;-88
2023/07/13 05:07:15;;;;;;;3.33;2.60;;;35.50;44.90;;;;;;4968460;28;20027;-88
2023/07/13 05:09:40;;;;;;;2.67;2.47;;;35.70;45.00;;;;;;4968706;28;20399;-87
2023/07/13 05:12:08;;;;;;;2.50;2.30;;;36.00;44.80;;;;;;4953472;28;20102;-88
2023/07/13 05:14:34;;;;;;;3.63;2.10;;;36.40;44.50;;;;;;4952583;29;20094;-89
2023/07/13 05:16:59;;;;;;;2.60;2.20;;;36.90;44.40;;;;;;4967432;28;20512;-88
2023/07/13 05:19:25;;;;;;;3.08;2.50;;;37.30;44.20;;;;;;4954088;28;20024;-89
2023/07/13 05:21:51;;;;;;;3.05;2.40;;;37.50;43.30;;;;;;4955015;28;20480;-88
2023/07/13 05:24:16;;;;;;;2.38;2.20;;;37.30;42.80;;;;;;4968573;28;20122;-89
2023/07/13 05:26:42;;;;;;;2.63;2.40;;;36.70;42.80;;;;;;4968303;28;20027;-89
2023/07/13 05:29:08;;;;;;;3.42;2.80;;;35.90;43.10;;;;;;4969082;28;20577;-89
2023/07/13 05:31:33;;;;;;;2.60;2.40;;;35.00;43.50;;;;;;4953965;28;20050;-89
2023/07/13 05:33:59;;;;;;;2.60;2.40;;;34.20;44.10;;;;;;4953414;28;20023;-89
2023/07/13 05:36:25;;;;;;;2.70;2.50;;;33.40;44.70;;;;;;4979979;28;20073;-89
2023/07/13 05:38:50;;;;;;;3.15;2.60;;;32.70;45.30;;;;;;4972022;28;20118;-89
2023/07/13 05:41:16;;;;;;;2.67;2.45;;;32.10;46.00;;;;;;4972241;28;20027;-88
2023/07/13 05:43:42;;;;;;;3.45;2.90;;;31.50;46.50;;;;;;4971375;28;20031;-88
2023/07/13 05:46:07;;;;;;;4.13;2.90;;;31.10;47.10;;;;;;4971487;28;20035;-89
2023/07/13 05:48:33;;;;;;;2.75;2.47;;;30.60;47.40;;;;;;4971268;28;20126;-89
2023/07/13 05:50:59;;;;;;;3.05;2.75;;;30.20;47.80;;;;;;4971357;28;20030;-88
2023/07/13 05:53:24;;;;;;;3.38;2.78;;;29.90;48.20;;;;;;4971711;28;20031;-90
2023/07/13 05:55:50;;;;;;;3.75;2.95;;;29.60;48.50;;;;;;4971661;28;20426;-89
2023/07/13 05:58:19;;;;;;;3.10;2.53;;;29.40;48.80;;;;;;4972064;28;20117;-88
2023/07/13 06:00:46;;;;;;;3.95;2.92;;;29.20;49.10;;;;;;4975912;28;20532;-89
2023/07/13 06:03:12;;;;;;;3.38;3.08;;;29.10;49.60;;;;;;4975776;28;20483;-87
2023/07/13 06:05:38;;;;;;;3.67;3.28;;;29.00;49.70;;;;;;4973907;28;20027;-86
2023/07/13 06:08:05;;;;;;;5.75;3.08;;;28.80;49.70;;;;;;4966525;28;20027;-87
2023/07/13 06:10:35;;;;;;;3.13;2.83;;;28.70;49.80;;;;;;4969774;28;20118;-87
2023/07/13 06:13:01;;;;;;;3.17;2.88;;;28.60;50.00;;;;;;4968253;28;20027;-87
2023/07/13 06:15:27;;;;;;;3.63;3.20;;;28.50;50.40;;;;;;4964576;28;20031;-88
2023/07/13 06:17:53;;;;;;;3.70;3.20;;;28.50;50.80;;;;;;4978067;28;20042;-88
2023/07/13 06:20:18;;;;;;;4.03;2.97;;;28.40;50.80;;;;;;4972433;28;20069;-88
2023/07/13 06:22:44;;;;;;;3.92;3.00;;;28.30;50.90;;;;;;4970478;28;20452;-87
2023/07/13 06:25:10;;;;;;;3.42;2.85;;;28.30;51.00;;;;;;4973900;28;20114;-86
2023/07/13 06:27:35;;;;;;;3.30;2.88;;;28.20;51.20;;;;;;4968097;28;20031;-86
2023/07/13 06:30:01;;;;;;;3.10;2.80;;;28.10;51.60;;;;;;4976710;28;20054;-87
2023/07/13 06:32:27;;;;;;;3.22;2.90;;;28.10;51.90;;;;;;4961655;28;20039;-87
2023/07/13 06:34:53;;;;;;;3.92;2.97;;;28.00;52.30;;;;;;4980584;28;20071;-87
2023/07/13 06:37:18;;;;;;;4.00;3.35;;;28.00;52.70;;;;;;4963490;28;20031;-87
2023/07/13 06:39:44;;;;;;;3.13;2.85;;;28.00;53.00;;;;;;4980213;28;20023;-88
2023/07/13 06:42:10;;;;;;;4.03;3.28;;;27.90;53.10;;;;;;4983969;28;20077;-88
2023/07/13 06:44:36;;;;;;;3.83;3.08;;;28.00;53.30;;;;;;4962215;28;20065;-87
2023/07/13 06:47:02;;;;;;;5.35;2.95;;;27.90;53.40;;;;;;4978382;28;20448;-88
2023/07/13 06:49:28;;;;;;;3.53;3.15;;;27.90;53.50;;;;;;4960017;28;20039;-89
2023/07/13 06:51:53;;;;;;;3.97;3.30;;;27.90;53.60;;;;;;4960530;28;20667;-88
2023/07/13 06:54:19;;;;;;;3.35;2.70;;;27.90;53.80;;;;;;4966747;28;20159;-87
2023/07/13 06:56:45;;;;;;;3.33;3.00;;;27.90;53.90;;;;;;4959812;28;21693;-84
2023/07/13 06:59:11;;;;;;;3.97;3.38;;;28.00;54.10;;;;;;4965067;28;20027;-86
2023/07/13 07:01:36;;;;;;;4.10;3.42;;;28.00;54.10;;;;;;4982256;28;20039;-91
2023/07/13 07:04:05;;;;;;;4.72;2.85;;;28.10;54.20;;;;;;4986392;28;20031;-92
2023/07/13 07:06:31;;;;;;;4.72;3.05;;;28.10;54.10;;;;;;4982113;28;20031;-92
2023/07/13 07:08:56;;;;;;;3.45;3.00;;;28.20;53.90;;;;;;4967108;28;20053;-89
2023/07/13 07:11:25;;;;;;;3.63;3.10;;;28.10;53.90;;;;;;4987868;28;20111;-90
2023/07/13 07:13:52;;;;;;;4.35;3.40;;;28.10;54.00;;;;;;4997490;28;20089;-90
2023/07/13 07:16:19;;;;;;;7.68;3.05;;;28.10;54.10;;;;;;4994632;28;20550;-91
2023/07/13 07:18:45;;;;;;;3.22;2.75;;;28.10;54.20;;;;;;4980582;28;20034;-90
2023/07/13 07:21:11;;;;;;;4.10;3.60;;;28.10;54.30;;;;;;4977401;28;20031;-90
2023/07/13 07:23:37;;;;;;;3.95;3.00;;;28.00;54.10;;;;;;4994060;28;20025;-90
2023/07/13 07:26:03;;;;;;;3.35;3.05;;;28.00;54.00;;;;;;5008684;28;20042;-90
2023/07/13 07:28:29;;;;;;;3.30;2.92;;;27.90;54.30;;;;;;5005546;28;20066;-90
2023/07/13 07:30:57;;;;;;;3.35;2.90;;;27.90;54.40;;;;;;4995477;28;20082;-90
2023/07/13 07:33:23;;;;;;;5.25;3.10;;;27.90;54.60;;;;;;4996444;28;20542;-91
2023/07/13 07:35:49;;;;;;;3.35;3.05;;;27.80;55.10;;;;;;4996592;28;20027;-91
2023/07/13 07:38:15;;;;;;;3.42;2.95;;;27.80;54.80;;;;;;4979404;28;20047;-89
2023/07/13 07:40:47;;;;;;;3.30;3.00;;;27.80;54.90;;;;;;4985495;28;20062;-90
2023/07/13 07:43:13;;;;;;;5.57;3.20;;;27.70;55.00;;;;;;4949948;28;20050;-87
2023/07/13 07:45:40;;;;;;;3.90;3.22;;;27.70;55.20;;;;;;4984888;28;20027;-87
2023/07/13 07:48:07;;;;;;;3.42;3.10;;;27.70;55.30;;;;;;4961471;28;20038;-87
2023/07/13 07:50:32;;;;;;;4.10;3.15;;;27.70;55.50;;;;;;4959389;28;20046;-87
2023/07/13 07:52:58;;;;;;;4.38;3.00;;;27.70;55.60;;;;;;4960795;28;20023;-84
2023/07/13 07:55:28;;;;;;;3.53;3.15;;;27.80;55.40;;;;;;4965975;28;20042;-84
2023/07/13 07:57:54;;;;;;;3.78;3.17;;;27.80;55.20;;;;;;4972279;28;20034;-85
2023/07/13 08:00:21;;;;;;;3.33;3.03;;;27.80;55.30;;;;;;4969998;28;20089;-88
2023/07/13 08:02:46;;;;;;;3.30;3.00;;;27.90;55.60;;;;;;4966893;28;20026;-87
2023/07/13 08:05:12;;;;;;;3.88;3.00;;;27.90;55.70;;;;;;4962942;28;20037;-88
2023/07/13 08:07:39;;;;;;;3.78;3.00;;;28.00;55.70;;;;;;4961132;28;20053;-87
2023/07/13 08:10:06;;;;;;;3.58;2.92;;;28.00;55.80;;;;;;4967904;28;20109;-87
2023/07/13 08:12:36;;;;;;;4.25;3.20;;;28.10;55.70;;;;;;4965338;28;20471;-88
2023/07/13 08:15:02;;;;;;;3.50;3.20;;;28.10;55.30;;;;;;4964073;28;20037;-88
2023/07/13 08:17:28;;;;;;;4.93;3.40;;;28.20;55.20;;;;;;4962031;28;20086;-86
2023/07/13 08:19:53;;;;;;;5.75;3.40;;;28.20;55.30;;;;;;4962144;28;20027;-88
2023/07/13 08:22:19;;;;;;;4.13;2.80;;;28.30;55.50;;;;;;4960934;28;20045;-87
2023/07/13 08:24:45;;;;;;;3.63;3.13;;;28.30;55.50;;;;;;4980951;28;20556;-86
2023/07/13 08:27:11;;;;;;;4.05;3.13;;;28.40;55.40;;;;;;4975999;28;20035;-87
2023/07/13 08:29:37;;;;;;;3.33;2.97;;;28.50;55.40;;;;;;4972976;28;20047;-86
2023/07/13 08:32:05;;;;;;;3.83;3.20;;;28.60;55.30;;;;;;4958597;28;20042;-87
2023/07/13 08:34:31;;;;;;;4.30;3.00;;;28.60;55.40;;;;;;4960615;28;20058;-86
2023/07/13 08:36:57;;;;;;;4.00;2.80;;;28.60;55.20;;;;;;4961589;28;20120;-87
2023/07/13 08:39:23;;;;;;;3.55;3.03;;;28.70;55.00;;;;;;4979418;28;20045;-87
2023/07/13 08:41:55;;;;;;;2.88;2.65;;;28.70;54.90;;;;;;4972322;28;20139;-86
2023/07/13 08:44:35;;;;;;;4.20;3.05;;;28.80;55.00;;;;;;4974727;28;20495;-86
2023/07/13 08:47:02;;;;;;;2.78;2.58;;;28.80;55.10;;;;;;4961281;28;20041;-87
2023/07/13 08:49:29;;;;;;;2.95;2.65;;;28.80;55.00;;;;;;4979452;28;20066;-88
2023/07/13 08:52:05;;;;;;;4.22;2.97;;;28.80;54.90;;;;;;4964732;28;20031;-87
2023/07/13 08:54:44;;;;;;;4.30;2.78;;;28.80;54.90;;;;;;4959866;28;20027;-85
2023/07/13 08:57:19;;;;;;;3.13;2.90;;;28.80;54.80;;;;;;4959401;28;20030;-85
2023/07/13 08:59:45;;;;;;;3.80;2.92;;;28.80;54.80;;;;;;4954339;28;20207;-85
2023/07/13 09:02:13;;;;;;;2.85;2.65;;;28.80;55.00;;;;;;4964637;28;20498;-85
2023/07/13 09:04:48;;;;;;;3.80;2.95;;;28.80;55.00;;;;;;4967606;28;20103;-85
2023/07/13 09:07:59;;;;;;;3.10;2.80;;;28.80;55.10;;;;;;4966013;28;20066;-85
2023/07/13 09:10:40;;;;;;;4.25;3.00;;;28.80;55.10;;;;;;4955290;28;20507;-85
2023/07/13 09:13:27;;;;;;;2.80;2.60;;;28.80;55.00;;;;;;4972606;28;20029;-84
2023/07/13 09:15:53;;;;;;;3.70;2.92;;;28.80;55.60;;;;;;4980843;28;20031;-88
2023/07/13 09:18:35;;;;;;;3.90;3.40;;;28.80;55.00;;;;;;4978305;28;20023;-89
2023/07/13 09:21:10;;;;;;;5.80;3.20;;;28.80;55.00;;;;;;4956571;28;20026;-86
2023/07/13 09:23:37;;;;;;;3.50;3.20;;;28.80;54.90;;;;;;4974648;28;20131;-82
2023/07/13 09:26:05;;;;;;;3.67;3.13;;;28.80;54.70;;;;;;4964377;28;20466;-82
2023/07/13 09:28:41;;;;;;;4.35;3.35;;;28.70;54.70;;;;;;4961887;28;20062;-82
2023/07/13 09:31:18;;;;;;;4.43;3.60;;;28.60;54.60;;;;;;4974353;28;20039;-82
2023/07/13 09:33:45;;;;;;;4.47;3.30;;;28.50;54.70;;;;;;4966183;28;20569;-81
2023/07/13 09:36:31;;;;;;;3.70;3.20;;;28.40;55.10;;;;;;4981995;28;20053;-84
2023/07/13 09:39:12;;;;;;;4.15;3.33;;;28.40;55.00;;;;;;4972375;28;20022;-80
2023/07/13 09:42:15;;;;;;;4.30;3.40;;;28.30;55.10;;;;;;4969963;28;20588;-81
2023/07/13 09:44:47;;;;;;;4.07;3.33;;;28.30;55.30;;;;;;4986762;28;20058;-85
2023/07/13 09:47:18;;;;;;;3.45;3.15;;;28.20;55.50;;;;;;4972853;28;20089;-85
2023/07/13 09:49:44;;;;;;;4.15;3.75;;;28.20;55.60;;;;;;4983951;28;20065;-83
2023/07/13 09:52:15;;;;;;;4.53;3.40;;;28.20;55.70;;;;;;4964911;28;20083;-87
2023/07/13 09:54:45;;;;;;;4.22;3.78;;;28.20;55.90;;;;;;4961186;28;20030;-85
2023/07/13 09:57:16;;;;;;;4.07;3.45;;;28.10;55.90;;;;;;4962948;28;20623;-85
2023/07/13 09:59:50;;;;;;;4.03;3.63;;;28.10;56.00;;;;;;4978498;28;20031;-84
2023/07/13 10:02:34;;;;;;;5.18;3.60;;;28.10;56.20;;;;;;4964948;28;20035;-82
2023/07/13 10:05:02;;;;;;;5.85;4.00;;;28.00;56.30;;;;;;4974326;28;20034;-82
2023/07/13 10:07:29;;;;;;;4.55;3.70;;;27.90;56.50;;;;;;4958645;28;20055;-81
2023/07/13 10:09:57;;;;;;;5.35;3.60;;;27.90;56.70;;;;;;4960969;28;20507;-85
2023/07/13 10:12:24;;;;;;;5.68;3.92;;;27.90;57.00;;;;;;4983842;28;20026;-85
2023/07/13 10:14:54;;;;;;;4.00;3.60;;;27.90;57.20;;;;;;4974249;28;20030;-85
2023/07/13 10:17:30;;;;;;;4.25;3.67;;;28.00;57.80;;;;;;4974643;28;20066;-85
2023/07/13 10:20:05;;;;;;;4.13;3.65;;;28.00;58.00;;;;;;4977883;28;20070;-85
2023/07/13 10:22:54;;;;;;;5.53;3.90;;;28.00;58.00;;;;;;4963596;28;20483;-86
2023/07/13 10:25:31;;;;;;;4.40;3.65;;;28.00;58.10;;;;;;4978116;28;20435;-85
2023/07/13 10:28:10;;;;;;;4.28;3.67;;;28.00;58.00;;;;;;4976578;28;20034;-85
2023/07/13 10:30:49;;;;;;;4.00;3.63;;;28.00;58.00;;;;;;4978642;28;20051;-88
2023/07/13 10:33:15;;;;;;;4.32;3.67;;;28.10;58.20;;;;;;4985766;28;20485;-83
2023/07/13 10:35:43;;;;;;;4.03;3.70;;;28.10;58.10;;;;;;4965360;28;20027;-85
2023/07/13 10:38:23;;;;;;;4.70;4.00;;;28.10;58.20;;;;;;4964805;28;20081;-83
2023/07/13 10:41:03;;;;;;;4.75;4.10;;;28.00;58.10;;;;;;4963569;28;20403;-84
2023/07/13 10:43:37;;;;;;;4.23;3.73;;;28.00;58.00;;;;;;4963921;28;20022;-85
2023/07/13 10:46:07;;;;;;;4.30;3.90;;;28.00;58.10;;;;;;4984631;28;20159;-87
2023/07/13 10:48:36;;;;;;;3.95;3.35;;;27.90;58.20;;;;;;4982775;28;20390;-89
2023/07/13 10:51:06;;;;;;;4.03;3.60;;;27.80;58.40;;;;;;4987129;28;20037;-87
2023/07/13 10:53:41;;;;;;;5.97;4.25;;;27.80;58.50;;;;;;4997331;28;20028;-88
2023/07/13 10:56:27;;;;;;;4.40;3.63;;;27.80;58.90;;;;;;4993543;28;20022;-85
2023/07/13 10:59:19;;;;;;;4.25;3.85;;;27.80;58.90;;;;;;4981999;28;20027;-86
2023/07/13 11:01:58;;;;;;;5.30;3.75;;;27.80;59.00;;;;;;4960623;28;20031;-86
2023/07/13 11:04:27;;;;;;;6.18;4.05;;;27.70;59.00;;;;;;4966574;28;20076;-86
2023/07/13 11:07:18;;;;;;;4.28;3.88;;;27.70;59.10;;;;;;4976681;28;20090;-85
2023/07/13 11:09:54;;;;;;;4.50;3.95;;;27.60;58.90;;;;;;4986426;28;20094;-84
2023/07/13 11:12:19;;;;;;;4.53;3.80;;;27.60;59.20;;;;;;4965649;28;21257;-85
2023/07/13 11:15:06;;;;;;;5.45;3.45;;;27.50;59.50;;;;;;4965602;28;20055;-85
2023/07/13 11:17:37;;;;;;;4.93;3.38;;;27.40;59.50;;;;;;4962383;28;20032;-84
2023/07/13 11:20:14;;;;;;;4.57;3.53;;;27.40;59.60;;;;;;4959730;28;20278;-83
2023/07/13 11:23:06;;;;;;;4.57;3.50;;;27.40;59.50;;;;;;4965064;28;20027;-85
2023/07/13 11:25:34;;;;;;;5.10;3.40;;;27.30;59.20;;;;;;4960418;28;20312;-85
2023/07/13 11:28:22;;;;;;;3.67;3.13;;;27.30;59.00;;;;;;4957469;28;20126;-85
2023/07/13 11:30:56;;;;;;;5.00;3.25;;;27.30;58.70;;;;;;4964738;28;20122;-85
2023/07/13 11:33:50;;;;;;;4.00;3.10;;;27.20;58.50;;;;;;4962201;28;20022;-83
2023/07/13 11:36:21;;;;;;;3.40;3.10;;;27.20;58.60;;;;;;4976215;28;20079;-84
2023/07/13 11:38:59;;;;;;;3.72;3.28;;;27.20;58.70;;;;;;4963832;28;20023;-84
2023/07/13 11:41:30;;;;;;;4.45;3.38;;;27.20;58.60;;;;;;4982824;28;20038;-85
2023/07/13 11:44:02;;;;;;;;;;;27.20;58.80;;;;;;4972812;28;20039;-84
2023/07/13 11:46:28;;;;;;;8.95;3.70;;;27.20;58.60;;;;;;4956725;28;20008;-84
2023/07/13 11:48:55;;;;;;;3.90;3.50;;;27.10;58.80;;;;;;4980811;28;20228;-82
2023/07/13 11:51:33;;;;;;;3.47;3.17;;;27.10;58.40;;;;;;4968108;28;20031;-83
2023/07/13 11:54:19;;;;;;;4.80;3.40;;;27.10;58.30;;;;;;4971747;28;20503;-84
2023/07/13 11:56:46;;;;;;;5.38;3.97;;;27.10;58.30;;;;;;4958442;28;20713;-84
2023/07/13 11:59:13;;;;;;;3.70;3.30;;;27.10;58.60;;;;;;4960917;28;20023;-83
2023/07/13 12:01:58;;;;;;;5.72;3.35;;;27.10;58.90;;;;;;4961698;28;20506;-82
2023/07/13 12:04:31;;;;;;;5.18;3.38;;;27.10;59.10;;;;;;4971300;28;20056;-82
2023/07/13 12:07:14;;;;;;;4.25;3.38;;;27.10;59.30;;;;;;4960862;28;20031;-83
2023/07/13 12:09:41;;;;;;;4.38;3.70;;;27.10;59.50;;;;;;4957243;28;20732;-82
2023/07/13 12:12:19;;;;;;;4.18;3.38;;;27.10;59.70;;;;;;4958634;28;20138;-82
2023/07/13 12:14:45;;;;;;;4.10;3.50;;;27.00;59.80;;;;;;4971941;28;20101;-84
2023/07/13 12:17:21;;;;;;;4.60;3.78;;;27.00;60.00;;;;;;4968746;28;20042;-83
2023/07/13 12:19:49;;;;;;;4.25;3.42;;;27.00;60.30;;;;;;4957582;28;20146;-83
2023/07/13 12:22:18;;;;;;;4.47;3.78;;;27.00;60.60;;;;;;4973510;28;20095;-83
2023/07/13 12:24:44;;;;;;;5.20;3.85;;;27.00;60.90;;;;;;4973171;28;20500;-83
2023/07/13 12:27:22;;;;;;;4.30;3.90;;;27.00;61.10;;;;;;4976075;28;20027;-83
2023/07/13 12:30:00;;;;;;;4.07;3.60;;;27.00;61.30;;;;;;4972372;28;20091;-82
2023/07/13 12:32:26;;;;;;;4.95;3.97;;;27.00;61.60;;;;;;4965003;28;20065;-82
2023/07/13 12:35:15;;;;;;;4.50;4.05;;;27.00;61.90;;;;;;4956792;28;20023;-82
2023/07/13 12:37:46;;;;;;;4.82;4.18;;;27.00;62.10;;;;;;4962638;28;20078;-82
2023/07/13 12:40:18;;;;;;;5.38;4.00;;;27.00;62.20;;;;;;4972762;28;20035;-82
2023/07/13 12:42:50;;;;;;;4.95;3.92;;;27.00;62.40;;;;;;4960422;28;20426;-86
2023/07/13 12:45:25;;;;;;;4.25;3.25;;;27.00;62.70;;;;;;4973275;28;20026;-84
2023/07/13 12:47:55;;;;;;;6.53;3.65;;;27.00;62.80;;;;;;4965922;28;20035;-84
2023/07/13 12:50:24;;;;;;;4.88;4.15;;;27.00;63.30;;;;;;4961212;28;20089;-83
2023/07/13 12:52:55;;;;;;;4.85;3.80;;;27.00;63.80;;;;;;4954098;28;20037;-85
2023/07/13 12:55:22;;;;;;;5.30;4.28;;;27.00;64.20;;;;;;4965367;28;20034;-83
2023/07/13 12:57:56;;;;;;;6.22;4.53;;;27.00;64.00;;;;;;4952962;28;20537;-84